sensor_id;sensor_type;location;lat;lon;timestamp;P1;durP1;ratioP1;P2;durP2;ratioP2
36191;SDS011;22233;42.708;23.360;2023-04-01T00:01:54;11.55;;;8.00;;
36191;SDS011;22233;42.708;23.360;2023-04-01T00:04:20;11.82;;;8.63;;
36191;SDS011;22233;42.708;23.360;2023-04-01T00:06:45;12.65;;;7.18;;
36191;SDS011;22233;42.708;23.360;2023-04-01T00:09:12;12.75;;;7.60;;
36191;SDS011;22233;42.708;23.360;2023-04-01T00:11:38;14.73;;;6.72;;
36191;SDS011;22233;42.708;23.360;2023-04-01T00:14:05;11.35;;;6.95;;
36191;SDS011;22233;42.708;23.360;2023-04-01T00:16:31;12.10;;;6.82;;
36191;SDS011;22233;42.708;23.360;2023-04-01T00:18:56;10.05;;;6.43;;
36191;SDS011;22233;42.708;23.360;2023-04-01T00:21:22;10.80;;;6.70;;
36191;SDS011;22233;42.708;23.360;2023-04-01T00:23:48;11.70;;;7.03;;
36191;SDS011;22233;42.708;23.360;2023-04-01T00:26:14;10.10;;;6.05;;
36191;SDS011;22233;42.708;23.360;2023-04-01T00:28:45;11.15;;;6.45;;
36191;SDS011;22233;42.708;23.360;2023-04-01T00:31:11;12.27;;;6.90;;
36191;SDS011;22233;42.708;23.360;2023-04-01T00:33:37;12.75;;;5.90;;
36191;SDS011;22233;42.708;23.360;2023-04-01T00:36:10;11.30;;;6.43;;
36191;SDS011;22233;42.708;23.360;2023-04-01T00:38:40;10.83;;;6.20;;
36191;SDS011;22233;42.708;23.360;2023-04-01T00:41:08;13.75;;;7.30;;
36191;SDS011;22233;42.708;23.360;2023-04-01T00:43:39;13.65;;;6.75;;
36191;SDS011;22233;42.708;23.360;2023-04-01T00:46:05;12.38;;;7.13;;
36191;SDS011;22233;42.708;23.360;2023-04-01T00:48:31;13.82;;;7.07;;
36191;SDS011;22233;42.708;23.360;2023-04-01T00:51:02;11.02;;;7.00;;
36191;SDS011;22233;42.708;23.360;2023-04-01T00:53:31;12.63;;;7.80;;
36191;SDS011;22233;42.708;23.360;2023-04-01T00:56:01;13.95;;;6.90;;
36191;SDS011;22233;42.708;23.360;2023-04-01T00:58:31;10.00;;;7.13;;
36191;SDS011;22233;42.708;23.360;2023-04-01T01:01:00;10.70;;;7.25;;
36191;SDS011;22233;42.708;23.360;2023-04-01T01:03:25;12.45;;;7.25;;
36191;SDS011;22233;42.708;23.360;2023-04-01T01:10:56;12.02;;;7.75;;
36191;SDS011;22233;42.708;23.360;2023-04-01T01:16:10;16.70;;;8.93;;
36191;SDS011;22233;42.708;23.360;2023-04-01T01:37:35;11.27;;;6.80;;
36191;SDS011;22233;42.708;23.360;2023-04-01T01:40:05;9.82;;;6.25;;
36191;SDS011;22233;42.708;23.360;2023-04-01T01:42:33;10.55;;;6.18;;
36191;SDS011;22233;42.708;23.360;2023-04-01T01:45:02;10.70;;;6.32;;
36191;SDS011;22233;42.708;23.360;2023-04-01T01:47:30;10.15;;;6.05;;
36191;SDS011;22233;42.708;23.360;2023-04-01T01:49:57;11.85;;;5.80;;
36191;SDS011;22233;42.708;23.360;2023-04-01T01:52:24;9.68;;;5.55;;
36191;SDS011;22233;42.708;23.360;2023-04-01T01:54:56;10.07;;;5.43;;
36191;SDS011;22233;42.708;23.360;2023-04-01T01:57:24;7.13;;;5.15;;
36191;SDS011;22233;42.708;23.360;2023-04-01T01:59:53;9.90;;;4.82;;
36191;SDS011;22233;42.708;23.360;2023-04-01T02:02:22;9.52;;;4.90;;
36191;SDS011;22233;42.708;23.360;2023-04-01T02:04:49;9.82;;;5.25;;
36191;SDS011;22233;42.708;23.360;2023-04-01T02:07:18;9.87;;;4.83;;
36191;SDS011;22233;42.708;23.360;2023-04-01T02:09:48;5.97;;;4.38;;
36191;SDS011;22233;42.708;23.360;2023-04-01T02:12:15;7.40;;;4.88;;
36191;SDS011;22233;42.708;23.360;2023-04-01T02:17:30;6.85;;;4.22;;
36191;SDS011;22233;42.708;23.360;2023-04-01T02:20:00;10.13;;;4.88;;
36191;SDS011;22233;42.708;23.360;2023-04-01T02:22:31;7.57;;;4.85;;
36191;SDS011;22233;42.708;23.360;2023-04-01T02:25:00;8.57;;;5.43;;
36191;SDS011;22233;42.708;23.360;2023-04-01T02:27:30;9.73;;;5.20;;
36191;SDS011;22233;42.708;23.360;2023-04-01T02:29:56;10.93;;;5.90;;
36191;SDS011;22233;42.708;23.360;2023-04-01T02:32:23;10.65;;;6.05;;
36191;SDS011;22233;42.708;23.360;2023-04-01T02:34:49;11.23;;;6.00;;
36191;SDS011;22233;42.708;23.360;2023-04-01T02:37:15;10.13;;;5.82;;
36191;SDS011;22233;42.708;23.360;2023-04-01T02:39:41;10.25;;;5.95;;
36191;SDS011;22233;42.708;23.360;2023-04-01T02:42:08;13.60;;;7.28;;
36191;SDS011;22233;42.708;23.360;2023-04-01T02:44:33;12.45;;;5.47;;
36191;SDS011;22233;42.708;23.360;2023-04-01T02:46:59;11.52;;;6.35;;
36191;SDS011;22233;42.708;23.360;2023-04-01T02:49:25;9.95;;;5.85;;
36191;SDS011;22233;42.708;23.360;2023-04-01T02:51:50;10.13;;;6.00;;
36191;SDS011;22233;42.708;23.360;2023-04-01T02:54:17;12.75;;;6.97;;
36191;SDS011;22233;42.708;23.360;2023-04-01T02:56:43;11.55;;;6.18;;
36191;SDS011;22233;42.708;23.360;2023-04-01T02:59:08;12.48;;;6.18;;
36191;SDS011;22233;42.708;23.360;2023-04-01T03:01:34;9.95;;;6.43;;
36191;SDS011;22233;42.708;23.360;2023-04-01T03:03:59;15.15;;;8.23;;
36191;SDS011;22233;42.708;23.360;2023-04-01T03:06:25;21.17;;;17.80;;
36191;SDS011;22233;42.708;23.360;2023-04-01T03:08:50;11.68;;;7.95;;
36191;SDS011;22233;42.708;23.360;2023-04-01T03:11:16;10.82;;;6.38;;
36191;SDS011;22233;42.708;23.360;2023-04-01T03:13:41;10.77;;;5.97;;
36191;SDS011;22233;42.708;23.360;2023-04-01T03:16:06;8.88;;;5.85;;
36191;SDS011;22233;42.708;23.360;2023-04-01T03:18:32;12.43;;;6.43;;
36191;SDS011;22233;42.708;23.360;2023-04-01T03:21:11;11.63;;;7.20;;
36191;SDS011;22233;42.708;23.360;2023-04-01T03:23:44;14.15;;;6.40;;
36191;SDS011;22233;42.708;23.360;2023-04-01T03:26:09;11.73;;;7.18;;
36191;SDS011;22233;42.708;23.360;2023-04-01T03:28:35;11.40;;;7.32;;
36191;SDS011;22233;42.708;23.360;2023-04-01T03:31:00;13.68;;;7.82;;
36191;SDS011;22233;42.708;23.360;2023-04-01T03:33:26;8.38;;;6.55;;
36191;SDS011;22233;42.708;23.360;2023-04-01T03:35:51;13.07;;;7.50;;
36191;SDS011;22233;42.708;23.360;2023-04-01T03:38:17;11.05;;;6.15;;
36191;SDS011;22233;42.708;23.360;2023-04-01T03:40:43;11.60;;;6.00;;
36191;SDS011;22233;42.708;23.360;2023-04-01T03:43:08;10.38;;;5.97;;
36191;SDS011;22233;42.708;23.360;2023-04-01T03:45:35;13.27;;;6.30;;
36191;SDS011;22233;42.708;23.360;2023-04-01T03:48:00;11.05;;;6.60;;
36191;SDS011;22233;42.708;23.360;2023-04-01T03:50:26;9.35;;;6.20;;
36191;SDS011;22233;42.708;23.360;2023-04-01T03:52:51;13.15;;;6.40;;
36191;SDS011;22233;42.708;23.360;2023-04-01T03:55:17;8.95;;;6.00;;
36191;SDS011;22233;42.708;23.360;2023-04-01T03:57:43;9.10;;;6.50;;
36191;SDS011;22233;42.708;23.360;2023-04-01T04:00:09;10.55;;;5.97;;
36191;SDS011;22233;42.708;23.360;2023-04-01T04:02:35;10.45;;;7.20;;
36191;SDS011;22233;42.708;23.360;2023-04-01T04:05:01;14.40;;;6.50;;
36191;SDS011;22233;42.708;23.360;2023-04-01T04:07:26;12.07;;;7.47;;
36191;SDS011;22233;42.708;23.360;2023-04-01T04:09:52;11.20;;;6.93;;
36191;SDS011;22233;42.708;23.360;2023-04-01T04:12:17;14.07;;;7.07;;
36191;SDS011;22233;42.708;23.360;2023-04-01T04:14:43;12.55;;;7.05;;
36191;SDS011;22233;42.708;23.360;2023-04-01T04:17:10;14.85;;;6.72;;
36191;SDS011;22233;42.708;23.360;2023-04-01T04:19:41;11.88;;;6.47;;
36191;SDS011;22233;42.708;23.360;2023-04-01T04:22:06;10.82;;;5.93;;
36191;SDS011;22233;42.708;23.360;2023-04-01T04:24:33;13.95;;;6.78;;
36191;SDS011;22233;42.708;23.360;2023-04-01T04:29:24;11.98;;;7.70;;
36191;SDS011;22233;42.708;23.360;2023-04-01T04:31:50;9.18;;;5.68;;
36191;SDS011;22233;42.708;23.360;2023-04-01T04:34:15;7.68;;;4.72;;
36191;SDS011;22233;42.708;23.360;2023-04-01T04:36:41;9.48;;;5.13;;
36191;SDS011;22233;42.708;23.360;2023-04-01T04:39:06;8.13;;;5.53;;
36191;SDS011;22233;42.708;23.360;2023-04-01T04:41:32;10.80;;;5.80;;
36191;SDS011;22233;42.708;23.360;2023-04-01T04:43:57;9.95;;;6.20;;
36191;SDS011;22233;42.708;23.360;2023-04-01T04:46:23;13.32;;;6.18;;
36191;SDS011;22233;42.708;23.360;2023-04-01T04:48:49;10.43;;;5.75;;
36191;SDS011;22233;42.708;23.360;2023-04-01T04:51:15;9.63;;;5.22;;
36191;SDS011;22233;42.708;23.360;2023-04-01T04:53:43;9.23;;;5.25;;
36191;SDS011;22233;42.708;23.360;2023-04-01T04:56:09;10.13;;;5.50;;
36191;SDS011;22233;42.708;23.360;2023-04-01T04:58:35;10.73;;;6.50;;
36191;SDS011;22233;42.708;23.360;2023-04-01T05:01:12;9.18;;;5.97;;
36191;SDS011;22233;42.708;23.360;2023-04-01T05:03:38;11.77;;;6.03;;
36191;SDS011;22233;42.708;23.360;2023-04-01T05:06:04;13.80;;;12.23;;
36191;SDS011;22233;42.708;23.360;2023-04-01T05:08:31;19.90;;;10.25;;
36191;SDS011;22233;42.708;23.360;2023-04-01T05:10:58;11.65;;;7.30;;
36191;SDS011;22233;42.708;23.360;2023-04-01T05:13:23;13.63;;;7.32;;
36191;SDS011;22233;42.708;23.360;2023-04-01T05:15:49;10.73;;;6.43;;
36191;SDS011;22233;42.708;23.360;2023-04-01T05:18:15;12.82;;;6.82;;
36191;SDS011;22233;42.708;23.360;2023-04-01T05:20:50;11.15;;;7.20;;
36191;SDS011;22233;42.708;23.360;2023-04-01T05:23:18;10.07;;;7.85;;
36191;SDS011;22233;42.708;23.360;2023-04-01T05:25:46;10.60;;;5.75;;
36191;SDS011;22233;42.708;23.360;2023-04-01T05:28:12;16.17;;;6.85;;
36191;SDS011;22233;42.708;23.360;2023-04-01T05:30:41;13.82;;;6.07;;
36191;SDS011;22233;42.708;23.360;2023-04-01T05:33:08;8.90;;;6.30;;
36191;SDS011;22233;42.708;23.360;2023-04-01T05:35:34;12.68;;;6.78;;
36191;SDS011;22233;42.708;23.360;2023-04-01T05:38:00;9.73;;;6.72;;
36191;SDS011;22233;42.708;23.360;2023-04-01T05:40:26;9.05;;;5.97;;
36191;SDS011;22233;42.708;23.360;2023-04-01T05:42:52;11.43;;;6.20;;
36191;SDS011;22233;42.708;23.360;2023-04-01T05:45:18;10.45;;;6.00;;
36191;SDS011;22233;42.708;23.360;2023-04-01T05:47:43;7.85;;;5.50;;
36191;SDS011;22233;42.708;23.360;2023-04-01T05:50:09;10.35;;;6.03;;
36191;SDS011;22233;42.708;23.360;2023-04-01T05:52:35;10.37;;;5.87;;
36191;SDS011;22233;42.708;23.360;2023-04-01T05:55:01;8.82;;;4.57;;
36191;SDS011;22233;42.708;23.360;2023-04-01T05:57:27;9.07;;;5.43;;
36191;SDS011;22233;42.708;23.360;2023-04-01T05:59:52;7.60;;;4.93;;
36191;SDS011;22233;42.708;23.360;2023-04-01T06:02:18;7.47;;;5.05;;
36191;SDS011;22233;42.708;23.360;2023-04-01T06:04:43;8.18;;;5.30;;
36191;SDS011;22233;42.708;23.360;2023-04-01T06:07:16;8.68;;;5.20;;
36191;SDS011;22233;42.708;23.360;2023-04-01T06:09:43;10.05;;;5.22;;
36191;SDS011;22233;42.708;23.360;2023-04-01T06:52:26;5.88;;;3.63;;
36191;SDS011;22233;42.708;23.360;2023-04-01T06:55:02;8.85;;;3.50;;
36191;SDS011;22233;42.708;23.360;2023-04-01T06:57:53;7.18;;;3.78;;
36191;SDS011;22233;42.708;23.360;2023-04-01T07:00:25;5.93;;;3.28;;
36191;SDS011;22233;42.708;23.360;2023-04-01T07:05:30;5.93;;;3.65;;
36191;SDS011;22233;42.708;23.360;2023-04-01T07:07:57;4.53;;;3.40;;
36191;SDS011;22233;42.708;23.360;2023-04-01T07:13:02;10.82;;;4.70;;
36191;SDS011;22233;42.708;23.360;2023-04-01T07:15:38;8.05;;;4.15;;
36191;SDS011;22233;42.708;23.360;2023-04-01T07:18:18;7.97;;;4.45;;
36191;SDS011;22233;42.708;23.360;2023-04-01T07:20:50;9.38;;;4.85;;
36191;SDS011;22233;42.708;23.360;2023-04-01T07:23:23;6.68;;;4.25;;
36191;SDS011;22233;42.708;23.360;2023-04-01T07:25:58;5.68;;;4.15;;
36191;SDS011;22233;42.708;23.360;2023-04-01T07:28:26;5.88;;;3.80;;
36191;SDS011;22233;42.708;23.360;2023-04-01T07:33:55;6.10;;;3.35;;
36191;SDS011;22233;42.708;23.360;2023-04-01T07:44:34;2.83;;;1.80;;
36191;SDS011;22233;42.708;23.360;2023-04-01T07:52:55;6.05;;;2.78;;
36191;SDS011;22233;42.708;23.360;2023-04-01T07:55:41;5.07;;;2.35;;
36191;SDS011;22233;42.708;23.360;2023-04-01T08:01:02;7.30;;;2.53;;
36191;SDS011;22233;42.708;23.360;2023-04-01T08:03:42;5.47;;;2.30;;
36191;SDS011;22233;42.708;23.360;2023-04-01T08:06:47;5.22;;;1.98;;
36191;SDS011;22233;42.708;23.360;2023-04-01T08:12:13;6.32;;;2.10;;
36191;SDS011;22233;42.708;23.360;2023-04-01T08:14:56;4.47;;;2.50;;
36191;SDS011;22233;42.708;23.360;2023-04-01T08:25:27;6.13;;;2.40;;
36191;SDS011;22233;42.708;23.360;2023-04-01T08:27:56;6.40;;;2.30;;
36191;SDS011;22233;42.708;23.360;2023-04-01T08:30:35;3.38;;;2.45;;
36191;SDS011;22233;42.708;23.360;2023-04-01T08:33:24;2.50;;;2.00;;
36191;SDS011;22233;42.708;23.360;2023-04-01T08:36:03;6.53;;;2.42;;
36191;SDS011;22233;42.708;23.360;2023-04-01T08:38:50;2.67;;;2.05;;
36191;SDS011;22233;42.708;23.360;2023-04-01T08:49:30;4.40;;;2.55;;
36191;SDS011;22233;42.708;23.360;2023-04-01T08:57:41;3.35;;;2.20;;
36191;SDS011;22233;42.708;23.360;2023-04-01T09:00:38;5.43;;;2.30;;
36191;SDS011;22233;42.708;23.360;2023-04-01T09:11:52;5.63;;;2.08;;
36191;SDS011;22233;42.708;23.360;2023-04-01T09:15:30;5.80;;;1.92;;
36191;SDS011;22233;42.708;23.360;2023-04-01T09:23:33;7.72;;;2.25;;
36191;SDS011;22233;42.708;23.360;2023-04-01T09:57:04;4.25;;;1.98;;
36191;SDS011;22233;42.708;23.360;2023-04-01T10:22:42;2.97;;;2.10;;
36191;SDS011;22233;42.708;23.360;2023-04-01T10:25:16;5.38;;;2.78;;
36191;SDS011;22233;42.708;23.360;2023-04-01T10:31:18;7.28;;;2.05;;
36191;SDS011;22233;42.708;23.360;2023-04-01T10:39:33;6.43;;;2.63;;
36191;SDS011;22233;42.708;23.360;2023-04-01T11:08:04;3.90;;;2.40;;
36191;SDS011;22233;42.708;23.360;2023-04-01T11:35:42;4.80;;;3.00;;
36191;SDS011;22233;42.708;23.360;2023-04-01T11:44:24;4.70;;;1.95;;
36191;SDS011;22233;42.708;23.360;2023-04-01T11:51:58;2.80;;;1.35;;
36191;SDS011;22233;42.708;23.360;2023-04-01T11:57:46;2.83;;;1.58;;
36191;SDS011;22233;42.708;23.360;2023-04-01T12:14:09;6.03;;;2.20;;
36191;SDS011;22233;42.708;23.360;2023-04-01T12:19:29;6.38;;;2.30;;
36191;SDS011;22233;42.708;23.360;2023-04-01T12:42:05;4.35;;;2.80;;
36191;SDS011;22233;42.708;23.360;2023-04-01T12:47:56;6.72;;;2.40;;
36191;SDS011;22233;42.708;23.360;2023-04-01T12:59:19;6.10;;;3.03;;
36191;SDS011;22233;42.708;23.360;2023-04-01T13:05:01;5.03;;;2.15;;
36191;SDS011;22233;42.708;23.360;2023-04-01T13:21:16;4.65;;;2.60;;
36191;SDS011;22233;42.708;23.360;2023-04-01T13:27:20;3.83;;;2.75;;
36191;SDS011;22233;42.708;23.360;2023-04-01T13:37:47;5.72;;;2.58;;
36191;SDS011;22233;42.708;23.360;2023-04-01T13:43:17;5.40;;;2.05;;
36191;SDS011;22233;42.708;23.360;2023-04-01T13:54:32;5.55;;;2.53;;
36191;SDS011;22233;42.708;23.360;2023-04-01T14:05:24;2.45;;;1.92;;
36191;SDS011;22233;42.708;23.360;2023-04-01T14:11:13;2.75;;;1.40;;
36191;SDS011;22233;42.708;23.360;2023-04-01T14:35:40;2.30;;;1.33;;
36191;SDS011;22233;42.708;23.360;2023-04-01T14:38:21;3.33;;;1.77;;
36191;SDS011;22233;42.708;23.360;2023-04-01T14:43:37;3.60;;;1.10;;
36191;SDS011;22233;42.708;23.360;2023-04-01T14:48:57;3.83;;;1.27;;
36191;SDS011;22233;42.708;23.360;2023-04-01T14:51:31;1.90;;;1.30;;
36191;SDS011;22233;42.708;23.360;2023-04-01T14:59:09;3.88;;;1.50;;
36191;SDS011;22233;42.708;23.360;2023-04-01T15:15:35;4.32;;;1.67;;
36191;SDS011;22233;42.708;23.360;2023-04-01T15:21:26;3.50;;;1.67;;
36191;SDS011;22233;42.708;23.360;2023-04-01T15:54:32;3.25;;;1.30;;
36191;SDS011;22233;42.708;23.360;2023-04-01T16:10:42;2.25;;;2.03;;
36191;SDS011;22233;42.708;23.360;2023-04-01T16:26:52;3.92;;;3.00;;
36191;SDS011;22233;42.708;23.360;2023-04-01T16:35:12;4.78;;;2.55;;
36191;SDS011;22233;42.708;23.360;2023-04-01T16:37:38;2.53;;;2.10;;
36191;SDS011;22233;42.708;23.360;2023-04-01T16:43:16;2.97;;;2.30;;
36191;SDS011;22233;42.708;23.360;2023-04-01T16:46:12;2.75;;;1.85;;
36191;SDS011;22233;42.708;23.360;2023-04-01T16:48:59;2.10;;;1.88;;
36191;SDS011;22233;42.708;23.360;2023-04-01T16:54:27;3.13;;;1.60;;
36191;SDS011;22233;42.708;23.360;2023-04-01T16:59:44;2.22;;;1.90;;
36191;SDS011;22233;42.708;23.360;2023-04-01T17:02:10;1.65;;;1.10;;
36191;SDS011;22233;42.708;23.360;2023-04-01T17:04:57;1.50;;;1.20;;
36191;SDS011;22233;42.708;23.360;2023-04-01T18:19:51;2.28;;;1.83;;
36191;SDS011;22233;42.708;23.360;2023-04-01T18:22:33;2.15;;;1.95;;
36191;SDS011;22233;42.708;23.360;2023-04-01T18:27:46;2.20;;;1.70;;
36191;SDS011;22233;42.708;23.360;2023-04-01T18:30:20;2.20;;;2.00;;
36191;SDS011;22233;42.708;23.360;2023-04-01T18:33:05;2.55;;;2.28;;
36191;SDS011;22233;42.708;23.360;2023-04-01T18:38:33;3.30;;;2.67;;
36191;SDS011;22233;42.708;23.360;2023-04-01T18:41:32;4.22;;;3.10;;
36191;SDS011;22233;42.708;23.360;2023-04-01T18:46:41;2.00;;;1.75;;
36191;SDS011;22233;42.708;23.360;2023-04-01T18:49:20;3.00;;;2.40;;
36191;SDS011;22233;42.708;23.360;2023-04-01T18:51:59;3.05;;;2.30;;
36191;SDS011;22233;42.708;23.360;2023-04-01T18:57:25;2.50;;;2.10;;
36191;SDS011;22233;42.708;23.360;2023-04-01T19:00:04;2.35;;;2.08;;
36191;SDS011;22233;42.708;23.360;2023-04-01T19:02:41;2.47;;;2.28;;
36191;SDS011;22233;42.708;23.360;2023-04-01T19:07:50;4.43;;;2.63;;
36191;SDS011;22233;42.708;23.360;2023-04-01T19:10:37;4.15;;;2.67;;
36191;SDS011;22233;42.708;23.360;2023-04-01T19:19:26;2.67;;;2.38;;
36191;SDS011;22233;42.708;23.360;2023-04-01T19:22:18;1.60;;;1.50;;
36191;SDS011;22233;42.708;23.360;2023-04-01T19:27:40;1.52;;;1.40;;
36191;SDS011;22233;42.708;23.360;2023-04-01T19:54:40;2.75;;;1.90;;
36191;SDS011;22233;42.708;23.360;2023-04-01T20:02:56;1.15;;;1.00;;
36191;SDS011;22233;42.708;23.360;2023-04-01T20:08:22;1.20;;;1.10;;
36191;SDS011;22233;42.708;23.360;2023-04-01T20:16:50;0.95;;;0.82;;
36191;SDS011;22233;42.708;23.360;2023-04-01T20:19:24;1.13;;;0.93;;
36191;SDS011;22233;42.708;23.360;2023-04-01T20:21:54;1.23;;;0.80;;
36191;SDS011;22233;42.708;23.360;2023-04-01T20:24:26;1.17;;;0.90;;
36191;SDS011;22233;42.708;23.360;2023-04-01T20:27:00;1.17;;;1.05;;
36191;SDS011;22233;42.708;23.360;2023-04-01T20:32:16;1.40;;;0.98;;
36191;SDS011;22233;42.708;23.360;2023-04-01T20:34:59;3.83;;;2.05;;
36191;SDS011;22233;42.708;23.360;2023-04-01T20:48:56;2.92;;;1.67;;
36191;SDS011;22233;42.708;23.360;2023-04-01T20:51:14;3.80;;;2.33;;
36191;SDS011;22233;42.708;23.360;2023-04-01T21:08:14;2.22;;;1.40;;
36191;SDS011;22233;42.708;23.360;2023-04-01T21:13:41;1.90;;;1.40;;
36191;SDS011;22233;42.708;23.360;2023-04-01T21:16:17;1.23;;;1.10;;
36191;SDS011;22233;42.708;23.360;2023-04-01T21:19:02;2.25;;;1.20;;
36191;SDS011;22233;42.708;23.360;2023-04-01T21:21:50;1.52;;;1.20;;
36191;SDS011;22233;42.708;23.360;2023-04-01T21:41:11;1.75;;;1.10;;
36191;SDS011;22233;42.708;23.360;2023-04-01T22:03:38;3.47;;;2.45;;
36191;SDS011;22233;42.708;23.360;2023-04-01T22:14:33;3.38;;;2.35;;
36191;SDS011;22233;42.708;23.360;2023-04-01T22:17:55;2.65;;;1.88;;
36191;SDS011;22233;42.708;23.360;2023-04-01T22:26:09;1.42;;;0.88;;
36191;SDS011;22233;42.708;23.360;2023-04-01T22:29:06;1.50;;;1.00;;
36191;SDS011;22233;42.708;23.360;2023-04-01T22:31:44;1.98;;;1.10;;
36191;SDS011;22233;42.708;23.360;2023-04-01T22:42:23;2.00;;;1.40;;
36191;SDS011;22233;42.708;23.360;2023-04-01T22:50:36;2.13;;;1.40;;
36191;SDS011;22233;42.708;23.360;2023-04-01T22:55:34;1.30;;;1.00;;
36191;SDS011;22233;42.708;23.360;2023-04-01T22:58:04;1.15;;;0.85;;
36191;SDS011;22233;42.708;23.360;2023-04-01T23:00:56;0.80;;;0.57;;
36191;SDS011;22233;42.708;23.360;2023-04-01T23:03:36;1.80;;;0.80;;
36191;SDS011;22233;42.708;23.360;2023-04-01T23:06:06;1.67;;;1.05;;
36191;SDS011;22233;42.708;23.360;2023-04-01T23:08:54;1.02;;;0.80;;
36191;SDS011;22233;42.708;23.360;2023-04-01T23:11:37;1.88;;;0.93;;
36191;SDS011;22233;42.708;23.360;2023-04-01T23:21:59;1.42;;;1.00;;
36191;SDS011;22233;42.708;23.360;2023-04-01T23:30:00;1.30;;;0.57;;
36191;SDS011;22233;42.708;23.360;2023-04-01T23:32:26;1.65;;;0.80;;
36191;SDS011;22233;42.708;23.360;2023-04-01T23:34:56;1.90;;;0.80;;
36191;SDS011;22233;42.708;23.360;2023-04-01T23:37:24;0.73;;;0.60;;
36191;SDS011;22233;42.708;23.360;2023-04-01T23:39:52;1.77;;;0.75;;
36191;SDS011;22233;42.708;23.360;2023-04-01T23:42:27;0.98;;;0.88;;
36191;SDS011;22233;42.708;23.360;2023-04-01T23:44:56;1.17;;;0.80;;
36191;SDS011;22233;42.708;23.360;2023-04-01T23:47:24;1.90;;;0.93;;
36191;SDS011;22233;42.708;23.360;2023-04-01T23:49:59;1.35;;;0.70;;
36191;SDS011;22233;42.708;23.360;2023-04-01T23:52:35;2.03;;;0.82;;
36191;SDS011;22233;42.708;23.360;2023-04-01T23:57:35;0.88;;;0.47;;
